Time;durP1;ratioP1;P1;durP2;ratioP2;P2;SDS_P1;SDS_P2;PMS_P1;PMS_P2;Temp;Humidity;BMP_temperature;BMP_pressure;BME280_temperature;BME280_humidity;BME280_pressure;Samples;Min_cycle;Max_cycle;Signal;HPM_P1;HPM_P2
2022/03/27 00:00:00;;;;;;;8.32;5.55;;;12.50;53.90;;;;;;4988918;28;20045;-46
2022/03/27 00:02:26;;;;;;;6.80;5.20;;;12.50;54.10;;;;;;4996203;28;20045;-49
2022/03/27 00:04:53;;;;;;;7.53;5.13;;;12.40;54.00;;;;;;5003515;28;20058;-48
2022/03/27 00:07:20;;;;;;;8.93;5.63;;;12.30;54.10;;;;;;5010610;28;20050;-49
2022/03/27 00:09:47;;;;;;;7.38;5.15;;;12.30;54.20;;;;;;4993092;28;20046;-48
2022/03/27 00:12:19;;;;;;;8.52;4.72;;;12.30;54.30;;;;;;4994864;28;20049;-45
2022/03/27 00:14:46;;;;;;;;;;;12.20;54.50;;;;;;5008844;28;20052;-46
2022/03/27 00:17:12;;;;;;;6.90;4.82;;;12.20;54.50;;;;;;4991373;28;19953;-46
2022/03/27 00:19:39;;;;;;;7.30;5.28;;;12.20;53.70;;;;;;4983143;28;20042;-47
2022/03/27 00:22:06;;;;;;;7.47;4.85;;;12.10;54.10;;;;;;4999668;28;20088;-49
2022/03/27 00:24:33;;;;;;;6.05;4.40;;;12.10;54.40;;;;;;4994580;28;20082;-45
2022/03/27 00:27:03;;;;;;;7.18;5.25;;;12.00;54.50;;;;;;4989953;28;20093;-48
2022/03/27 00:29:30;;;;;;;5.55;4.97;;;12.00;54.70;;;;;;4978154;28;20052;-50
2022/03/27 00:31:56;;;;;;;7.18;5.22;;;12.00;54.80;;;;;;5004579;28;20531;-51
2022/03/27 00:34:24;;;;;;;7.95;5.45;;;11.90;55.00;;;;;;4991452;28;20453;-48
2022/03/27 00:36:50;;;;;;;6.55;4.95;;;11.90;55.10;;;;;;4989800;28;20564;-50
2022/03/27 00:39:20;;;;;;;9.27;6.07;;;11.90;55.30;;;;;;4992378;28;20042;-47
2022/03/27 00:41:47;;;;;;;6.95;5.57;;;11.80;55.50;;;;;;5002815;28;20072;-45
2022/03/27 00:44:14;;;;;;;7.32;5.35;;;11.80;55.70;;;;;;5003157;28;20038;-47
2022/03/27 00:46:43;;;;;;;5.57;4.55;;;11.80;55.60;;;;;;5004989;28;20686;-45
2022/03/27 00:49:11;;;;;;;8.43;5.28;;;11.80;55.70;;;;;;4998618;28;20448;-49
2022/03/27 00:51:37;;;;;;;8.05;5.20;;;11.80;55.70;;;;;;5001065;28;20698;-46
2022/03/27 00:54:05;;;;;;;5.45;4.38;;;11.80;55.80;;;;;;5010456;28;20050;-49
2022/03/27 00:56:32;;;;;;;5.70;4.78;;;11.70;55.80;;;;;;4998720;28;20685;-49
2022/03/27 00:58:59;;;;;;;5.95;4.93;;;11.70;55.90;;;;;;4986742;28;20514;-48
2022/03/27 01:01:35;;;;;;;6.93;4.47;;;11.70;55.90;;;;;;4989567;28;20077;-46
2022/03/27 01:04:07;;;;;;;10.32;5.18;;;11.70;56.90;;;;;;4990301;28;20118;-46
2022/03/27 01:06:36;;;;;;;6.43;4.22;;;11.70;56.30;;;;;;4986422;28;20053;-45
2022/03/27 01:11:55;;;;;;;7.68;4.40;;;11.60;56.20;;;;;;4994302;28;20113;-46
2022/03/27 01:14:32;;;;;;;6.35;4.72;;;11.60;55.90;;;;;;4990325;28;20481;-51
2022/03/27 01:17:08;;;;;;;6.40;4.40;;;11.60;56.40;;;;;;4988416;28;20072;-49
2022/03/27 01:19:40;;;;;;;6.40;4.53;;;11.60;56.70;;;;;;4984790;28;20530;-48
2022/03/27 01:22:07;;;;;;;10.52;5.35;;;11.60;56.50;;;;;;4969027;28;20054;-46
2022/03/27 01:24:34;;;;;;;5.32;4.55;;;11.50;56.10;;;;;;4973826;28;20088;-44
2022/03/27 01:27:01;;;;;;;8.35;5.07;;;11.50;56.20;;;;;;4998029;28;20206;-49
2022/03/27 01:29:28;;;;;;;5.13;4.45;;;11.50;56.30;;;;;;4993250;28;20046;-49
2022/03/27 01:31:56;;;;;;;5.07;4.20;;;11.40;56.30;;;;;;4988228;28;20759;-47
2022/03/27 01:34:25;;;;;;;6.38;4.28;;;11.40;56.30;;;;;;4985637;28;20048;-51
2022/03/27 01:36:52;;;;;;;6.05;4.25;;;11.40;56.20;;;;;;4976073;28;20066;-49
2022/03/27 01:39:19;;;;;;;5.60;4.75;;;11.30;56.20;;;;;;5002059;28;20058;-46
2022/03/27 01:41:45;;;;;;;5.38;4.47;;;11.30;56.30;;;;;;5009454;28;20054;-48
2022/03/27 01:44:15;;;;;;;7.55;4.97;;;11.30;56.30;;;;;;4999317;28;20100;-48
2022/03/27 01:46:43;;;;;;;6.43;5.18;;;11.20;56.30;;;;;;4999386;28;20100;-46
2022/03/27 01:49:12;;;;;;;6.70;4.28;;;11.20;56.60;;;;;;5002679;28;20048;-48
2022/03/27 01:51:40;;;;;;;5.75;4.70;;;11.20;56.70;;;;;;5008334;28;20076;-45
2022/03/27 01:54:08;;;;;;;6.32;4.50;;;11.10;56.60;;;;;;4994368;28;20116;-45
2022/03/27 01:56:37;;;;;;;6.88;4.70;;;11.10;56.60;;;;;;4999047;28;20639;-49
2022/03/27 01:59:05;;;;;;;6.25;5.13;;;11.10;56.70;;;;;;5000984;28;20096;-48
2022/03/27 02:01:36;;;;;;;6.15;4.82;;;11.10;56.80;;;;;;5008563;28;20042;-45
2022/03/27 02:04:04;;;;;;;6.47;5.00;;;11.00;57.30;;;;;;4996058;28;20034;-45
2022/03/27 02:06:32;;;;;;;7.10;5.30;;;11.00;57.60;;;;;;4989132;28;20050;-50
2022/03/27 02:09:00;;;;;;;8.05;5.57;;;11.00;57.60;;;;;;4989399;28;20183;-49
2022/03/27 02:11:29;;;;;;;6.30;5.32;;;11.00;57.80;;;;;;5024097;22;20049;-49
2022/03/27 02:13:55;;;;;;;9.40;5.57;;;10.90;58.30;;;;;;5026548;28;20493;-51
2022/03/27 02:16:22;;;;;;;7.45;5.75;;;11.00;58.30;;;;;;5030375;28;20045;-48
2022/03/27 02:18:52;;;;;;;7.43;6.05;;;11.00;58.50;;;;;;5026541;28;20052;-50
2022/03/27 02:21:19;;;;;;;7.95;5.60;;;10.90;59.20;;;;;;5038953;28;20045;-49
2022/03/27 02:23:46;;;;;;;8.90;6.20;;;10.90;59.10;;;;;;5046011;28;20045;-47
2022/03/27 02:26:13;;;;;;;8.68;6.50;;;11.00;59.30;;;;;;5024543;28;20041;-52
2022/03/27 02:28:42;;;;;;;9.00;6.45;;;11.00;59.60;;;;;;5029951;28;20088;-47
2022/03/27 02:31:09;;;;;;;7.32;5.55;;;11.00;59.20;;;;;;5040239;28;20088;-46
2022/03/27 02:33:39;;;;;;;7.57;5.85;;;11.00;59.10;;;;;;5036156;28;20041;-46
2022/03/27 02:36:08;;;;;;;8.35;6.10;;;11.00;58.90;;;;;;5038968;28;20834;-52
2022/03/27 02:38:35;;;;;;;6.57;5.10;;;11.00;58.90;;;;;;5048676;28;20045;-47
2022/03/27 02:41:03;;;;;;;6.78;5.60;;;11.00;58.80;;;;;;5040130;28;20110;-48
2022/03/27 02:43:31;;;;;;;6.93;5.50;;;11.00;58.60;;;;;;5035283;28;20107;-49
2022/03/27 02:45:58;;;;;;;7.25;5.63;;;11.00;58.50;;;;;;5040292;28;20049;-47
2022/03/27 02:48:25;;;;;;;7.63;5.32;;;10.90;58.30;;;;;;5044700;28;20248;-48
2022/03/27 02:50:52;;;;;;;6.30;5.63;;;10.90;58.30;;;;;;5019952;28;20042;-48
2022/03/27 02:53:19;;;;;;;8.40;6.35;;;10.90;59.20;;;;;;5028345;28;20087;-49
2022/03/27 02:55:46;;;;;;;9.15;6.65;;;10.90;59.10;;;;;;5042977;28;20053;-49
2022/03/27 02:58:12;;;;;;;7.90;6.35;;;10.90;59.60;;;;;;5023003;28;20045;-46
2022/03/27 03:00:41;;;;;;;8.75;6.50;;;10.80;59.20;;;;;;5036035;28;20106;-48
2022/03/27 03:03:09;;;;;;;8.57;5.95;;;10.80;59.10;;;;;;5023731;28;20045;-50
2022/03/27 03:05:40;;;;;;;7.40;6.63;;;10.90;59.10;;;;;;5015424;28;20077;-49
2022/03/27 03:08:11;;;;;;;11.32;7.53;;;10.80;59.60;;;;;;5031132;28;20041;-46
2022/03/27 03:10:39;;;;;;;7.47;6.10;;;10.80;60.40;;;;;;5030867;28;20057;-49
2022/03/27 03:13:09;;;;;;;10.02;6.38;;;10.80;60.20;;;;;;5047907;28;20075;-47
2022/03/27 03:15:37;;;;;;;8.85;6.13;;;10.90;59.80;;;;;;5017488;28;20045;-49
2022/03/27 03:18:05;;;;;;;6.93;5.47;;;10.80;59.40;;;;;;5029521;28;20045;-50
2022/03/27 03:20:35;;;;;;;7.85;6.65;;;10.90;59.30;;;;;;5042795;28;20053;-46
2022/03/27 03:23:08;;;;;;;8.10;6.43;;;10.80;59.50;;;;;;5041223;28;20536;-49
2022/03/27 03:25:42;;;;;;;8.20;6.18;;;10.80;59.10;;;;;;5042645;28;20048;-51
2022/03/27 03:28:28;;;;;;;9.30;6.38;;;10.80;58.90;;;;;;5024077;28;20635;-47
2022/03/27 03:30:55;;;;;;;7.55;6.07;;;10.80;58.80;;;;;;5041673;28;20501;-50
2022/03/27 03:33:22;;;;;;;7.18;6.00;;;10.70;58.60;;;;;;5033338;28;20493;-46
2022/03/27 03:35:49;;;;;;;6.55;5.55;;;10.70;58.50;;;;;;5030265;28;20037;-50
2022/03/27 03:38:16;;;;;;;8.82;6.55;;;10.60;58.30;;;;;;5029432;28;20098;-48
2022/03/27 03:40:42;;;;;;;9.30;6.95;;;10.60;58.40;;;;;;5039579;28;20344;-48
2022/03/27 03:43:13;;;;;;;11.30;7.35;;;10.60;58.70;;;;;;5050628;28;20053;-47
2022/03/27 03:45:42;;;;;;;10.35;7.15;;;10.50;58.90;;;;;;5044428;28;20046;-47
2022/03/27 03:48:09;;;;;;;9.05;7.20;;;10.50;59.00;;;;;;5040657;28;20493;-51
2022/03/27 03:50:36;;;;;;;9.05;6.93;;;10.50;59.40;;;;;;5042868;28;20041;-45
2022/03/27 03:53:05;;;;;;;9.82;6.80;;;10.50;59.70;;;;;;5050301;28;20157;-47
2022/03/27 03:55:34;;;;;;;10.82;8.02;;;10.50;59.70;;;;;;5039264;28;20053;-47
2022/03/27 03:58:02;;;;;;;9.15;6.70;;;10.40;60.30;;;;;;5025897;28;20045;-46
2022/03/27 04:00:31;;;;;;;10.80;7.20;;;10.40;60.70;;;;;;5038815;28;20056;-47
2022/03/27 04:03:00;;;;;;;10.10;7.68;;;10.40;60.30;;;;;;5049522;28;20052;-46
2022/03/27 04:05:28;;;;;;;9.38;7.32;;;10.50;60.70;;;;;;5037571;28;20037;-48
2022/03/27 04:07:57;;;;;;;8.32;6.80;;;10.40;59.80;;;;;;5043694;28;20041;-46
2022/03/27 04:10:30;;;;;;;10.00;7.13;;;10.50;59.90;;;;;;5031084;28;20041;-51
2022/03/27 04:12:57;;;;;;;13.13;7.68;;;10.40;59.90;;;;;;5028959;28;20079;-50
2022/03/27 04:15:27;;;;;;;9.35;7.28;;;10.40;60.20;;;;;;5038009;28;20048;-46
2022/03/27 04:18:15;;;;;;;9.88;7.32;;;10.40;60.30;;;;;;5037364;28;20045;-47
2022/03/27 04:20:43;;;;;;;9.73;7.78;;;10.40;60.30;;;;;;5044346;28;20826;-46
2022/03/27 04:23:13;;;;;;;10.10;7.28;;;10.40;60.30;;;;;;5030000;28;20049;-45
2022/03/27 04:25:50;;;;;;;11.50;7.75;;;10.40;60.80;;;;;;5035747;28;20073;-47
2022/03/27 04:28:19;;;;;;;10.10;7.90;;;10.40;62.10;;;;;;5042047;28;20500;-47
2022/03/27 04:30:49;;;;;;;13.35;9.10;;;10.40;61.50;;;;;;5049184;28;20037;-52
2022/03/27 04:33:19;;;;;;;11.77;8.65;;;10.40;62.30;;;;;;5027457;28;20412;-48
2022/03/27 04:35:50;;;;;;;14.35;10.65;;;10.50;62.90;;;;;;5040317;28;20493;-46
2022/03/27 04:38:17;;;;;;;16.25;11.55;;;10.50;63.20;;;;;;5050593;28;20458;-49
2022/03/27 04:40:44;;;;;;;20.17;12.10;;;10.60;63.80;;;;;;5046555;28;20037;-50
2022/03/27 04:43:13;;;;;;;28.50;16.70;;;10.70;64.20;;;;;;5023954;28;20616;-49
2022/03/27 04:45:40;;;;;;;25.00;15.65;;;10.80;64.50;;;;;;5030508;28;20038;-47
2022/03/27 04:48:08;;;;;;;29.60;18.92;;;10.80;64.70;;;;;;5038716;28;20068;-46
2022/03/27 04:50:35;;;;;;;36.08;20.75;;;10.90;65.00;;;;;;5033440;28;20041;-50
2022/03/27 04:53:04;;;;;;;40.50;22.17;;;11.00;65.00;;;;;;5029341;28;20046;-46
2022/03/27 04:55:31;;;;;;;41.10;23.42;;;11.10;65.00;;;;;;5031842;28;20079;-47
2022/03/27 04:58:00;;;;;;;43.58;22.95;;;11.20;65.00;;;;;;5040397;28;20790;-49
2022/03/27 05:00:26;;;;;;;46.70;24.30;;;11.20;65.00;;;;;;5049364;28;20134;-46
2022/03/27 05:02:55;;;;;;;53.60;23.58;;;11.30;65.20;;;;;;5034005;28;20045;-46
2022/03/27 05:05:22;;;;;;;51.10;25.63;;;11.40;65.60;;;;;;5040691;28;20037;-50
2022/03/27 05:07:53;;;;;;;48.88;26.02;;;11.40;65.20;;;;;;5041831;28;20034;-49
2022/03/27 05:10:20;;;;;;;48.20;25.67;;;11.40;65.20;;;;;;5025128;28;20124;-48
2022/03/27 05:12:47;;;;;;;52.80;26.10;;;11.40;65.30;;;;;;5038063;28;20042;-46
2022/03/27 05:15:21;;;;;;;49.00;26.95;;;11.50;65.30;;;;;;5028450;28;20457;-46
2022/03/27 05:17:56;;;;;;;66.82;29.73;;;11.50;65.50;;;;;;5032928;28;20050;-46
2022/03/27 05:20:23;;;;;;;74.60;29.98;;;11.60;65.60;;;;;;5033028;28;20096;-49
2022/03/27 05:22:50;;;;;;;71.45;32.50;;;11.60;65.60;;;;;;5041233;28;20044;-45
2022/03/27 05:25:18;;;;;;;82.88;31.73;;;11.60;65.60;;;;;;5042217;28;20037;-48
2022/03/27 05:27:58;;;;;;;71.75;33.65;;;11.70;65.60;;;;;;5049621;28;20040;-49
2022/03/27 05:30:27;;;;;;;76.90;35.72;;;11.70;66.90;;;;;;5036877;28;20069;-46
2022/03/27 05:32:54;;;;;;;77.57;33.38;;;11.70;65.90;;;;;;5037413;28;20052;-46
2022/03/27 05:35:21;;;;;;;85.38;37.83;;;11.70;65.80;;;;;;5035875;28;20046;-50
2022/03/27 05:37:52;;;;;;;75.90;35.50;;;11.80;65.90;;;;;;5030446;28;20049;-50
2022/03/27 05:40:20;;;;;;;86.10;37.67;;;11.80;66.00;;;;;;5032517;28;20087;-49
2022/03/27 05:42:48;;;;;;;89.72;40.20;;;11.80;66.10;;;;;;5037357;28;20041;-46
2022/03/27 05:45:18;;;;;;;89.30;39.88;;;11.90;66.20;;;;;;5030193;28;20409;-47
2022/03/27 05:47:45;;;;;;;86.07;38.67;;;11.80;66.60;;;;;;5031298;28;20509;-49
2022/03/27 05:50:16;;;;;;;79.22;38.00;;;11.90;66.20;;;;;;5041732;28;20049;-46
2022/03/27 05:52:50;;;;;;;94.85;38.50;;;11.90;66.40;;;;;;5048773;28;20041;-48
2022/03/27 05:55:17;;;;;;;101.60;39.10;;;11.90;66.20;;;;;;5041093;28;20083;-46
2022/03/27 05:57:46;;;;;;;86.43;37.35;;;11.90;66.30;;;;;;5029385;28;20042;-45
2022/03/27 06:00:16;;;;;;;86.07;39.63;;;11.90;66.30;;;;;;5029430;28;20160;-50
2022/03/27 06:02:44;;;;;;;88.75;41.10;;;12.00;66.40;;;;;;5040393;28;20118;-49
2022/03/27 06:05:11;;;;;;;105.15;38.97;;;12.00;66.60;;;;;;5036803;28;20559;-50
2022/03/27 06:07:48;;;;;;;101.85;42.80;;;12.00;66.70;;;;;;5035707;28;20528;-47
2022/03/27 06:10:16;;;;;;;96.70;41.05;;;12.00;67.90;;;;;;5022589;28;20042;-50
2022/03/27 06:12:45;;;;;;;109.40;40.75;;;12.10;66.90;;;;;;5027225;28;20045;-49
2022/03/27 06:15:14;;;;;;;94.90;41.53;;;12.10;66.90;;;;;;5020581;28;20455;-52
2022/03/27 06:17:47;;;;;;;93.10;40.25;;;12.10;67.60;;;;;;5021886;28;20041;-52
2022/03/27 06:20:17;;;;;;;95.70;39.97;;;12.10;67.60;;;;;;5040073;28;20489;-50
2022/03/27 06:22:44;;;;;;;96.95;40.65;;;12.10;67.20;;;;;;5025042;28;20099;-50
2022/03/27 06:25:22;;;;;;;83.18;40.25;;;12.10;67.10;;;;;;5007970;28;20069;-52
2022/03/27 06:27:49;;;;;;;92.68;37.90;;;12.20;67.30;;;;;;5027671;28;20038;-47
2022/03/27 06:30:18;;;;;;;88.93;38.33;;;12.20;67.00;;;;;;5037851;28;20045;-49
2022/03/27 06:32:49;;;;;;;80.65;38.65;;;12.20;67.20;;;;;;5030029;28;20103;-47
2022/03/27 06:35:22;;;;;;;91.85;41.38;;;12.20;67.20;;;;;;5025777;28;20049;-51
2022/03/27 06:37:50;;;;;;;93.30;40.50;;;12.20;67.40;;;;;;5027575;28;20088;-52
2022/03/27 06:40:17;;;;;;;100.40;43.53;;;12.20;67.10;;;;;;5034100;28;20049;-49
2022/03/27 06:42:45;;;;;;;99.78;44.13;;;12.30;67.20;;;;;;5006551;28;20038;-52
2022/03/27 06:45:13;;;;;;;97.43;42.03;;;12.30;67.40;;;;;;5006498;28;20052;-52
2022/03/27 06:47:42;;;;;;;98.70;43.78;;;12.40;67.50;;;;;;5020915;28;20048;-49
2022/03/27 06:50:12;;;;;;;93.72;42.53;;;12.40;67.40;;;;;;5023637;28;20045;-53
2022/03/27 06:52:41;;;;;;;99.43;44.05;;;12.40;67.40;;;;;;5031738;28;20111;-54
2022/03/27 06:55:09;;;;;;;93.82;44.03;;;12.40;67.40;;;;;;5008051;28;20047;-50
2022/03/27 06:57:37;;;;;;;95.32;42.17;;;12.50;67.50;;;;;;5022284;28;20079;-55
2022/03/27 07:03:03;;;;;;;85.97;38.58;;;12.50;67.60;;;;;;4985380;28;20054;-48
2022/03/27 07:05:35;;;;;;;93.50;40.60;;;12.50;67.20;;;;;;5025624;28;20049;-50
2022/03/27 07:08:03;;;;;;;;;;;12.60;67.30;;;;;;5033640;28;23028;-51
2022/03/27 07:10:30;;;;;;;93.85;39.88;;;12.70;68.40;;;;;;5021539;28;19975;-49
2022/03/27 07:12:57;;;;;;;89.40;41.83;;;12.60;66.40;;;;;;5020568;28;20044;-51
2022/03/27 07:15:25;;;;;;;91.13;41.42;;;12.70;66.70;;;;;;5019809;28;20077;-48
2022/03/27 07:17:53;;;;;;;100.90;43.17;;;12.70;66.90;;;;;;5028131;28;20045;-50
2022/03/27 07:20:26;;;;;;;93.43;42.13;;;12.70;67.10;;;;;;5014385;28;20046;-49
2022/03/27 07:22:55;;;;;;;98.78;41.38;;;12.70;67.30;;;;;;5012675;28;20103;-52
2022/03/27 07:25:25;;;;;;;87.82;41.80;;;12.70;67.30;;;;;;5015092;28;20117;-50
2022/03/27 07:27:52;;;;;;;92.05;40.28;;;12.70;67.40;;;;;;5026815;28;20041;-52
2022/03/27 07:30:19;;;;;;;86.20;38.75;;;12.80;67.30;;;;;;5013433;28;20046;-49
2022/03/27 07:32:49;;;;;;;82.57;37.13;;;12.80;67.30;;;;;;5022476;28;20443;-54
2022/03/27 07:35:15;;;;;;;88.05;41.13;;;12.80;67.20;;;;;;5020854;28;20037;-49
2022/03/27 07:37:43;;;;;;;96.40;42.70;;;12.90;67.20;;;;;;5007663;28;20050;-54
2022/03/27 07:40:12;;;;;;;104.80;42.83;;;12.90;67.30;;;;;;5011534;28;20069;-53
2022/03/27 07:42:42;;;;;;;100.55;43.90;;;12.90;67.30;;;;;;5027345;28;20061;-55
2022/03/27 07:45:09;;;;;;;94.60;42.38;;;12.90;68.10;;;;;;5012679;28;20038;-53
2022/03/27 07:47:36;;;;;;;91.47;41.70;;;13.00;67.30;;;;;;5007743;28;20096;-56
2022/03/27 07:50:04;;;;;;;98.25;42.97;;;13.00;67.30;;;;;;5012397;28;20115;-52
2022/03/27 07:52:31;;;;;;;92.55;40.63;;;13.00;67.20;;;;;;5032158;28;20045;-56
2022/03/27 07:54:58;;;;;;;94.75;40.72;;;13.00;67.20;;;;;;5007291;28;20161;-49
2022/03/27 07:57:26;;;;;;;92.03;38.67;;;13.00;67.00;;;;;;5013392;28;20095;-47
2022/03/27 07:59:53;;;;;;;95.22;41.00;;;13.00;67.10;;;;;;5008461;28;20501;-52
2022/03/27 08:02:21;;;;;;;94.78;41.22;;;13.10;67.30;;;;;;5026139;28;20063;-50
2022/03/27 08:04:52;;;;;;;99.80;43.58;;;13.10;68.00;;;;;;5005610;28;20062;-49
2022/03/27 08:07:19;;;;;;;81.97;39.05;;;13.10;67.30;;;;;;5010432;28;20049;-47
2022/03/27 08:09:46;;;;;;;86.38;38.17;;;13.20;67.20;;;;;;5004057;28;20092;-47
2022/03/27 08:12:13;;;;;;;91.25;39.72;;;13.20;67.30;;;;;;5027717;28;20124;-51
2022/03/27 08:14:40;;;;;;;88.15;39.55;;;13.20;67.20;;;;;;5005332;28;20045;-47
2022/03/27 08:17:09;;;;;;;83.40;36.30;;;13.20;67.20;;;;;;5030916;28;20095;-50
2022/03/27 08:19:36;;;;;;;87.95;38.47;;;13.30;67.20;;;;;;5007844;28;20033;-52
2022/03/27 08:22:03;;;;;;;84.10;39.17;;;13.30;67.20;;;;;;5033382;28;20088;-50
2022/03/27 08:24:30;;;;;;;83.15;39.17;;;13.40;67.20;;;;;;5013913;28;20056;-49
2022/03/27 08:26:59;;;;;;;84.22;38.08;;;13.40;67.00;;;;;;5022100;28;20033;-49
2022/03/27 08:29:29;;;;;;;80.55;38.72;;;13.50;67.00;;;;;;5005080;28;20065;-52
2022/03/27 08:31:59;;;;;;;83.80;38.60;;;13.50;67.00;;;;;;5027983;28;20067;-53
2022/03/27 08:34:25;;;;;;;81.18;38.38;;;13.60;67.00;;;;;;5008269;28;20045;-48
2022/03/27 08:36:56;;;;;;;84.57;39.00;;;13.60;66.80;;;;;;5014044;28;20405;-49
2022/03/27 08:39:23;;;;;;;94.80;39.40;;;13.70;66.80;;;;;;5004216;28;20050;-50
2022/03/27 08:41:54;;;;;;;93.97;39.33;;;13.70;66.70;;;;;;5028124;28;20515;-48
2022/03/27 08:44:25;;;;;;;92.93;42.95;;;13.70;66.60;;;;;;4989620;28;20065;-48
2022/03/27 08:46:54;;;;;;;95.00;41.33;;;13.80;66.60;;;;;;5017510;28;20044;-48
2022/03/27 08:49:34;;;;;;;95.45;39.35;;;13.90;66.40;;;;;;5011838;28;20127;-50
2022/03/27 08:52:23;;;;;;;81.30;39.78;;;13.80;66.50;;;;;;5027083;28;20571;-48
2022/03/27 08:55:04;;;;;;;71.18;34.78;;;13.90;66.00;;;;;;5011247;28;20461;-49
2022/03/27 08:57:39;;;;;;;79.25;35.67;;;13.90;66.50;;;;;;5032654;28;20094;-48
2022/03/27 09:00:06;;;;;;;68.97;33.60;;;13.90;66.30;;;;;;5011937;28;20056;-49
2022/03/27 09:02:33;;;;;;;74.07;33.92;;;13.90;65.90;;;;;;5024130;28;20567;-49
2022/03/27 09:05:03;;;;;;;74.10;34.50;;;14.00;65.90;;;;;;5009550;28;20057;-49
2022/03/27 09:07:30;;;;;;;75.05;35.75;;;14.00;66.10;;;;;;5037640;28;20095;-45
2022/03/27 09:10:00;;;;;;;92.53;41.47;;;14.00;66.00;;;;;;5005868;28;20022;-49
2022/03/27 09:12:27;;;;;;;88.53;40.22;;;14.00;65.90;;;;;;5017540;28;20634;-50
2022/03/27 09:14:56;;;;;;;81.10;38.30;;;14.10;65.90;;;;;;5006487;28;20092;-48
2022/03/27 09:17:26;;;;;;;80.35;37.03;;;14.10;66.00;;;;;;5022487;28;20041;-45
2022/03/27 09:19:53;;;;;;;77.18;38.67;;;14.20;65.70;;;;;;5005323;28;20056;-49
2022/03/27 09:22:29;;;;;;;86.43;40.17;;;14.20;65.70;;;;;;5018326;28;20037;-50
2022/03/27 09:25:01;;;;;;;89.03;41.58;;;14.30;66.00;;;;;;5006165;28;20129;-47
2022/03/27 09:27:30;;;;;;;94.65;43.35;;;14.30;65.70;;;;;;5030524;28;20065;-49
2022/03/27 09:30:07;;;;;;;89.85;42.15;;;14.40;65.50;;;;;;5004778;28;20045;-47
2022/03/27 09:32:43;;;;;;;98.35;43.45;;;14.50;65.60;;;;;;5020121;28;20063;-48
2022/03/27 09:35:12;;;;;;;100.03;43.25;;;14.50;65.50;;;;;;5009235;28;20040;-52
2022/03/27 09:37:42;;;;;;;91.20;40.92;;;14.60;65.40;;;;;;5027420;28;20113;-49
2022/03/27 09:40:14;;;;;;;88.70;39.35;;;14.60;65.20;;;;;;4999688;28;20038;-50
2022/03/27 09:42:42;;;;;;;79.47;38.00;;;14.70;65.00;;;;;;5022675;28;20045;-47
2022/03/27 09:45:11;;;;;;;79.82;37.72;;;14.70;64.60;;;;;;5010633;28;20409;-51
2022/03/27 09:47:38;;;;;;;76.97;36.88;;;14.80;64.50;;;;;;5029423;28;20041;-48
2022/03/27 09:50:05;;;;;;;76.53;36.90;;;14.80;64.50;;;;;;4996579;28;20034;-49
2022/03/27 09:52:36;;;;;;;69.35;34.15;;;14.80;64.40;;;;;;5025879;28;20095;-47
2022/03/27 09:55:07;;;;;;;72.65;33.30;;;14.90;64.60;;;;;;5009087;28;20049;-51
2022/03/27 09:57:39;;;;;;;69.10;32.97;;;14.90;64.60;;;;;;5026337;28;20041;-45
2022/03/27 10:00:15;;;;;;;;;;;15.20;64.80;;;;;;5009973;28;20041;-51
2022/03/27 10:02:45;;;;;;;65.15;32.65;;;15.10;64.50;;;;;;5023560;28;19924;-47
2022/03/27 10:05:17;;;;;;;69.70;33.65;;;15.10;63.70;;;;;;5009319;28;20053;-47
2022/03/27 10:07:47;;;;;;;72.10;34.53;;;15.10;63.60;;;;;;5003742;28;20045;-46
2022/03/27 10:10:22;;;;;;;69.00;35.08;;;15.00;63.60;;;;;;5020455;28;20052;-49
2022/03/27 10:12:56;;;;;;;66.60;34.25;;;15.20;64.00;;;;;;5020299;28;20099;-46
2022/03/27 10:15:25;;;;;;;73.85;37.92;;;15.30;63.60;;;;;;5019665;28;20037;-50
2022/03/27 10:17:56;;;;;;;72.78;39.13;;;15.30;63.40;;;;;;5020863;28;20375;-46
2022/03/27 10:20:28;;;;;;;71.90;38.20;;;15.40;63.40;;;;;;5015389;28;20053;-47
2022/03/27 10:23:09;;;;;;;74.95;37.85;;;15.50;63.30;;;;;;5015436;28;20049;-47
2022/03/27 10:26:02;;;;;;;69.15;36.20;;;15.50;63.40;;;;;;5016850;28;20498;-50
2022/03/27 10:28:35;;;;;;;69.00;35.75;;;15.60;63.20;;;;;;5012486;28;20490;-50
2022/03/27 10:31:02;;;;;;;63.97;34.45;;;15.70;62.90;;;;;;5018700;28;20065;-49
2022/03/27 10:33:30;;;;;;;64.25;34.22;;;15.60;62.80;;;;;;5015330;28;20065;-51
2022/03/27 10:36:17;;;;;;;68.22;33.10;;;15.80;62.80;;;;;;5018196;28;20042;-48
2022/03/27 10:38:54;;;;;;;68.07;35.15;;;15.80;62.80;;;;;;5018685;28;20517;-51
2022/03/27 10:41:43;;;;;;;66.32;35.17;;;15.90;62.60;;;;;;5029368;28;20045;-50
2022/03/27 10:44:38;;;;;;;65.05;33.03;;;16.00;62.40;;;;;;5012004;28;20076;-48
2022/03/27 10:47:21;;;;;;;65.20;33.65;;;16.10;62.10;;;;;;5025741;28;20390;-48
2022/03/27 10:50:01;;;;;;;64.97;34.30;;;16.20;61.90;;;;;;5009909;28;20459;-47
2022/03/27 10:52:32;;;;;;;68.97;36.13;;;16.30;61.60;;;;;;5026832;28;20037;-48
2022/03/27 10:55:02;;;;;;;65.97;34.20;;;16.40;61.30;;;;;;5013515;28;20042;-47
2022/03/27 10:57:39;;;;;;;64.05;34.47;;;16.50;60.90;;;;;;5021755;28;20048;-52
2022/03/27 11:00:09;;;;;;;67.63;35.78;;;16.70;60.80;;;;;;5013134;28;20536;-48
2022/03/27 11:02:50;;;;;;;60.53;33.35;;;16.70;60.40;;;;;;5020247;28;20042;-47
2022/03/27 11:05:33;;;;;;;60.88;33.30;;;16.80;60.10;;;;;;5013581;28;20498;-48
2022/03/27 11:08:18;;;;;;;58.10;33.13;;;16.90;60.00;;;;;;5019413;28;20037;-49
2022/03/27 11:10:59;;;;;;;58.58;31.95;;;17.00;59.70;;;;;;5020423;28;20387;-51
2022/03/27 11:13:29;;;;;;;51.70;29.67;;;17.10;59.20;;;;;;4997330;28;20042;-50
2022/03/27 11:16:14;;;;;;;60.53;33.40;;;17.20;59.10;;;;;;5019996;28;20038;-51
2022/03/27 11:18:49;;;;;;;51.22;32.42;;;17.20;59.00;;;;;;5018642;28;20086;-48
2022/03/27 11:21:27;;;;;;;55.95;32.28;;;17.30;58.90;;;;;;5023190;28;20044;-50
2022/03/27 11:24:04;;;;;;;59.97;32.22;;;17.40;58.70;;;;;;5011262;28;20037;-52
2022/03/27 11:26:30;;;;;;;62.45;34.70;;;17.40;58.70;;;;;;5031369;28;20041;-48
2022/03/27 11:28:59;;;;;;;71.93;37.72;;;17.50;58.30;;;;;;5014319;28;20416;-48
2022/03/27 11:31:30;;;;;;;66.28;35.20;;;17.60;57.90;;;;;;5015830;28;20084;-52
2022/03/27 11:34:08;;;;;;;61.85;34.65;;;17.60;57.60;;;;;;5019034;28;20490;-52
2022/03/27 11:36:36;;;;;;;68.75;37.90;;;17.70;57.50;;;;;;5025933;28;20095;-51
2022/03/27 11:39:11;;;;;;;69.55;38.03;;;17.70;57.40;;;;;;5019040;28;20512;-51
2022/03/27 11:41:48;;;;;;;69.30;39.28;;;17.70;57.20;;;;;;5011710;28;20661;-48
2022/03/27 11:47:34;;;;;;;80.13;41.75;;;17.60;57.60;;;;;;5029768;28;20041;-50
2022/03/27 11:50:00;;;;;;;77.80;40.78;;;17.50;57.20;;;;;;5006878;28;20072;-51
2022/03/27 11:52:27;;;;;;;79.60;41.05;;;17.40;56.90;;;;;;5010315;28;20042;-51
2022/03/27 11:55:08;;;;;;;81.22;45.42;;;17.30;57.30;;;;;;5005231;28;20587;-51
2022/03/27 11:57:51;;;;;;;84.97;44.20;;;17.30;57.80;;;;;;5031197;28;20076;-50
2022/03/27 12:00:45;;;;;;;90.70;45.92;;;17.30;57.80;;;;;;5013713;28;20414;-51
2022/03/27 12:03:22;;;;;;;86.30;44.00;;;17.20;58.40;;;;;;5014630;28;20792;-47
2022/03/27 12:05:50;;;;;;;75.97;40.47;;;17.10;58.10;;;;;;5015560;28;20144;-51
2022/03/27 12:08:17;;;;;;;78.97;44.08;;;17.10;58.00;;;;;;5028247;28;20068;-48
2022/03/27 12:10:56;;;;;;;77.85;40.55;;;17.00;58.30;;;;;;5016389;28;20065;-48
2022/03/27 12:13:23;;;;;;;71.97;39.97;;;17.10;58.60;;;;;;5011668;28;20038;-52
2022/03/27 12:15:53;;;;;;;76.45;43.00;;;17.10;58.50;;;;;;5018000;28;20041;-48
2022/03/27 12:18:35;;;;;;;74.63;42.58;;;17.20;58.40;;;;;;5017239;28;20042;-51
2022/03/27 12:21:05;;;;;;;67.95;38.28;;;17.20;58.40;;;;;;5023690;28;20497;-51
2022/03/27 12:23:35;;;;;;;75.68;41.58;;;17.20;58.00;;;;;;5022481;28;20490;-48
2022/03/27 12:29:39;;;;;;;66.85;39.13;;;17.30;58.00;;;;;;5041744;28;20045;-50
2022/03/27 12:32:08;;;;;;;;;;;17.40;57.90;;;;;;5027938;28;20045;-52
2022/03/27 12:34:41;;;;;;;57.40;31.92;;;17.50;57.60;;;;;;5041011;28;19921;-46
2022/03/27 12:37:17;;;;;;;59.70;35.67;;;17.50;56.80;;;;;;5050570;28;20052;-50
2022/03/27 12:39:55;;;;;;;62.40;35.70;;;17.60;57.00;;;;;;5048804;28;20048;-52
2022/03/27 12:42:32;;;;;;;58.55;33.50;;;17.60;56.70;;;;;;5038773;28;20036;-52
2022/03/27 12:45:12;;;;;;;61.22;33.58;;;17.60;57.10;;;;;;5039862;28;20041;-47
2022/03/27 12:47:50;;;;;;;59.50;33.78;;;17.70;56.60;;;;;;5051546;28;20029;-52
2022/03/27 12:50:31;;;;;;;49.25;31.48;;;17.80;56.30;;;;;;5039369;28;20043;-47
2022/03/27 12:53:08;;;;;;;51.25;30.17;;;17.90;56.50;;;;;;5042256;28;20094;-49
2022/03/27 12:55:58;;;;;;;49.78;30.98;;;17.90;56.40;;;;;;5026170;28;20052;-51
2022/03/27 12:58:34;;;;;;;49.10;29.10;;;18.00;56.00;;;;;;5041926;28;20549;-46
2022/03/27 13:01:15;;;;;;;47.25;27.05;;;18.10;56.20;;;;;;5033732;28;20047;-49